Time;durP1;ratioP1;P1;durP2;ratioP2;P2;SDS_P1;SDS_P2;PMS_P1;PMS_P2;Temp;Humidity;BMP_temperature;BMP_pressure;BME280_temperature;BME280_humidity;BME280_pressure;Samples;Min_cycle;Max_cycle;Signal;HPM_P1;HPM_P2
2023/08/31 00:00:41;;;;;;;1.52;0.80;;;;;;;;;;10490815;28;20017;-62
2023/08/31 00:05:43;;;;;;;1.85;1.00;;;;;;;;;;10490255;28;20025;-62
2023/08/31 00:10:45;;;;;;;2.05;0.90;;;;;;;;;;10490371;28;20484;-62
2023/08/31 00:15:46;;;;;;;1.35;1.00;;;;;;;;;;10490824;28;20090;-61
2023/08/31 00:20:47;;;;;;;2.22;1.10;;;;;;;;;;10492279;28;20030;-61
2023/08/31 00:25:48;;;;;;;1.77;1.10;;;;;;;;;;10498920;28;20024;-62
2023/08/31 00:30:49;;;;;;;2.45;1.02;;;;;;;;;;10497919;28;21906;-62
2023/08/31 00:35:49;;;;;;;3.38;1.10;;;;;;;;;;10497754;28;20081;-62
2023/08/31 00:40:50;;;;;;;1.38;0.90;;;;;;;;;;10497628;28;20032;-62
2023/08/31 00:45:59;;;;;;;2.08;1.30;;;;;;;;;;10497448;28;20123;-62
2023/08/31 00:51:00;;;;;;;1.70;0.95;;;;;;;;;;10496347;28;20105;-61
2023/08/31 00:56:01;;;;;;;2.28;1.25;;;;;;;;;;10495857;28;20037;-62
2023/08/31 01:01:54;;;;;;;1.88;0.90;;;;;;;;;;10497302;28;20028;-62
2023/08/31 01:07:20;;;;;;;1.67;1.00;;;;;;;;;;10459594;28;20049;-64
2023/08/31 01:12:36;;;;;;;0.95;0.88;;;;;;;;;;10496189;28;20048;-64
2023/08/31 01:17:43;;;;;;;1.33;0.95;;;;;;;;;;10496355;28;20462;-64
2023/08/31 01:23:03;;;;;;;3.07;1.40;;;;;;;;;;10495975;28;20120;-64
2023/08/31 01:28:05;;;;;;;1.10;1.00;;;;;;;;;;10496148;28;20115;-64
2023/08/31 01:33:05;;;;;;;1.20;1.10;;;;;;;;;;10494643;28;20037;-64
2023/08/31 01:38:09;;;;;;;2.35;0.93;;;;;;;;;;10495808;28;20384;-64
2023/08/31 01:43:11;;;;;;;1.77;1.13;;;;;;;;;;10495374;28;20124;-64
2023/08/31 01:48:14;;;;;;;1.25;1.10;;;;;;;;;;10493876;28;20074;-64
2023/08/31 01:53:15;;;;;;;2.28;1.30;;;;;;;;;;10494807;28;20082;-64
2023/08/31 01:58:15;;;;;;;1.00;0.90;;;;;;;;;;10494768;28;20067;-64
2023/08/31 02:03:16;;;;;;;2.50;1.10;;;;;;;;;;10494503;28;20025;-64
2023/08/31 02:08:17;;;;;;;2.58;1.25;;;;;;;;;;10494257;28;20020;-64
2023/08/31 02:13:18;;;;;;;1.80;0.90;;;;;;;;;;10493704;28;20105;-64
2023/08/31 02:18:19;;;;;;;4.95;1.20;;;;;;;;;;10494191;28;20093;-64
2023/08/31 02:23:19;;;;;;;2.10;1.10;;;;;;;;;;10491726;28;20456;-64
2023/08/31 02:28:21;;;;;;;2.60;1.25;;;;;;;;;;10493000;28;20028;-62
2023/08/31 02:33:21;;;;;;;1.83;1.15;;;;;;;;;;10493099;28;20044;-61
2023/08/31 02:38:22;;;;;;;2.08;1.30;;;;;;;;;;10492835;28;20365;-62
2023/08/31 02:43:25;;;;;;;0.88;0.88;;;;;;;;;;10492729;28;20399;-62
2023/08/31 02:48:27;;;;;;;1.42;1.20;;;;;;;;;;10492546;28;20064;-62
2023/08/31 02:53:30;;;;;;;1.83;1.20;;;;;;;;;;10492140;28;20391;-61
2023/08/31 02:58:31;;;;;;;2.40;1.27;;;;;;;;;;10492005;28;20021;-62
2023/08/31 03:03:32;;;;;;;1.88;1.30;;;;;;;;;;10492603;28;20033;-62
2023/08/31 03:08:33;;;;;;;4.75;1.30;;;;;;;;;;10491939;28;20470;-62
2023/08/31 03:13:34;;;;;;;1.08;1.00;;;;;;;;;;10479721;28;20513;-62
2023/08/31 03:18:34;;;;;;;1.98;0.98;;;;;;;;;;10491750;28;20056;-62
2023/08/31 03:23:35;;;;;;;2.67;1.20;;;;;;;;;;10491401;28;20025;-62
2023/08/31 03:28:36;;;;;;;1.10;1.05;;;;;;;;;;10491296;28;20048;-62
2023/08/31 03:33:37;;;;;;;1.73;0.90;;;;;;;;;;10491127;28;20059;-62
2023/08/31 03:38:38;;;;;;;2.42;1.33;;;;;;;;;;10491013;28;20043;-62
2023/08/31 03:43:39;;;;;;;3.35;1.00;;;;;;;;;;10491801;28;20036;-62
2023/08/31 03:48:39;;;;;;;1.17;1.08;;;;;;;;;;10490975;28;20016;-62
2023/08/31 03:53:40;;;;;;;1.30;1.20;;;;;;;;;;10491197;28;20459;-62
2023/08/31 03:58:40;;;;;;;2.00;1.30;;;;;;;;;;10498059;28;20529;-62
2023/08/31 04:03:44;;;;;;;2.33;1.20;;;;;;;;;;10498987;28;20082;-62
2023/08/31 04:08:44;;;;;;;1.30;1.13;;;;;;;;;;10498741;28;20560;-62
2023/08/31 04:13:45;;;;;;;1.33;0.98;;;;;;;;;;10498341;28;20063;-62
2023/08/31 04:18:51;;;;;;;2.08;1.10;;;;;;;;;;10498420;28;20032;-62
2023/08/31 04:23:51;;;;;;;1.95;1.20;;;;;;;;;;10498275;28;20028;-62
2023/08/31 04:28:52;;;;;;;2.58;1.20;;;;;;;;;;10479867;28;20480;-62
2023/08/31 04:33:55;;;;;;;1.02;1.02;;;;;;;;;;10497758;28;20040;-62
2023/08/31 04:38:56;;;;;;;1.27;1.17;;;;;;;;;;10497458;28;20054;-61
2023/08/31 04:43:57;;;;;;;1.13;1.02;;;;;;;;;;10497505;28;20062;-62
2023/08/31 04:48:58;;;;;;;1.30;0.95;;;;;;;;;;10497272;28;20025;-62
2023/08/31 04:53:59;;;;;;;2.65;1.08;;;;;;;;;;10496426;28;20043;-62
2023/08/31 04:59:02;;;;;;;1.02;0.93;;;;;;;;;;10501789;28;20032;-62
2023/08/31 05:04:03;;;;;;;1.35;1.00;;;;;;;;;;10496512;28;20031;-62
2023/08/31 05:09:05;;;;;;;1.80;1.10;;;;;;;;;;10495054;28;20028;-61
2023/08/31 05:14:06;;;;;;;2.00;1.02;;;;;;;;;;10495957;28;20049;-62
2023/08/31 05:19:07;;;;;;;3.47;1.27;;;;;;;;;;10496046;28;20037;-61
2023/08/31 05:24:08;;;;;;;4.68;1.38;;;;;;;;;;10495897;28;20043;-61
2023/08/31 05:29:08;;;;;;;15.48;1.58;;;;;;;;;;10477671;28;20025;-61
2023/08/31 05:34:10;;;;;;;2.35;1.27;;;;;;;;;;10495639;28;20438;-61
2023/08/31 05:39:10;;;;;;;7.03;1.52;;;;;;;;;;10494138;28;20039;-61
2023/08/31 05:44:11;;;;;;;3.50;1.70;;;;;;;;;;10495045;28;20040;-61
2023/08/31 05:49:11;;;;;;;4.90;1.58;;;;;;;;;;10495303;28;20031;-62
2023/08/31 05:54:13;;;;;;;3.05;1.50;;;;;;;;;;10494285;28;20031;-62
2023/08/31 05:59:13;;;;;;;2.88;1.35;;;;;;;;;;10501864;28;20452;-64
2023/08/31 06:04:14;;;;;;;9.85;1.70;;;;;;;;;;10493719;28;20029;-62
2023/08/31 06:09:14;;;;;;;9.07;1.60;;;;;;;;;;10494044;28;20028;-63
2023/08/31 06:14:15;;;;;;;5.53;1.25;;;;;;;;;;10494146;28;20048;-62
2023/08/31 06:19:15;;;;;;;6.15;1.58;;;;;;;;;;10492862;28;20029;-62
2023/08/31 06:24:16;;;;;;;5.18;1.42;;;;;;;;;;10475062;28;20357;-63
2023/08/31 06:29:17;;;;;;;8.60;1.50;;;;;;;;;;10493232;28;20360;-62
2023/08/31 06:34:18;;;;;;;3.03;1.35;;;;;;;;;;10493317;28;20037;-62
2023/08/31 06:39:18;;;;;;;2.28;1.23;;;;;;;;;;10492802;28;20434;-62
2023/08/31 06:44:19;;;;;;;3.60;1.40;;;;;;;;;;10493022;28;20028;-62
2023/08/31 06:49:19;;;;;;;9.45;1.20;;;;;;;;;;10493192;28;20034;-62
2023/08/31 06:54:20;;;;;;;3.17;1.40;;;;;;;;;;10492682;28;20047;-62
2023/08/31 06:59:20;;;;;;;4.75;1.30;;;;;;;;;;10492493;28;20028;-62
2023/08/31 07:04:21;;;;;;;6.28;1.60;;;;;;;;;;10492113;28;20031;-62
2023/08/31 07:09:22;;;;;;;6.65;1.00;;;;;;;;;;10491882;28;20016;-62
2023/08/31 07:14:22;;;;;;;8.40;1.50;;;;;;;;;;10491592;28;20048;-62
2023/08/31 07:19:23;;;;;;;5.72;1.40;;;;;;;;;;10491775;28;20287;-62
2023/08/31 07:24:24;;;;;;;2.60;0.93;;;;;;;;;;10491548;28;20024;-62
2023/08/31 07:29:24;;;;;;;6.50;1.50;;;;;;;;;;10490880;28;20094;-62
2023/08/31 07:34:26;;;;;;;2.85;1.20;;;;;;;;;;10491259;28;20109;-62
2023/08/31 07:39:27;;;;;;;2.67;1.30;;;;;;;;;;10491184;28;20063;-62
2023/08/31 07:44:28;;;;;;;5.63;1.27;;;;;;;;;;10491165;28;20040;-63
2023/08/31 07:49:28;;;;;;;2.05;1.30;;;;;;;;;;10491114;28;20024;-62
2023/08/31 07:54:29;;;;;;;2.60;1.00;;;;;;;;;;10490807;28;20028;-62
2023/08/31 07:59:29;;;;;;;2.65;0.90;;;;;;;;;;10491056;28;20115;-62
2023/08/31 08:04:31;;;;;;;1.42;1.20;;;;;;;;;;10490805;28;20027;-62
2023/08/31 08:09:31;;;;;;;2.50;1.10;;;;;;;;;;10490513;28;20025;-62
2023/08/31 08:14:33;;;;;;;1.77;1.00;;;;;;;;;;10490774;28;20408;-62
2023/08/31 08:19:33;;;;;;;3.22;1.20;;;;;;;;;;10490560;28;20574;-62
2023/08/31 08:24:34;;;;;;;2.70;1.40;;;;;;;;;;10490488;28;20234;-62
2023/08/31 08:29:34;;;;;;;3.80;1.42;;;;;;;;;;10490786;28;20036;-62
2023/08/31 08:34:35;;;;;;;1.02;0.90;;;;;;;;;;10490580;28;20040;-62
2023/08/31 08:39:35;;;;;;;3.28;1.10;;;;;;;;;;10490057;28;20035;-62
2023/08/31 08:44:37;;;;;;;3.30;0.95;;;;;;;;;;10496197;28;20017;-62
2023/08/31 08:49:38;;;;;;;1.23;0.73;;;;;;;;;;10497739;28;20052;-62
2023/08/31 08:54:38;;;;;;;1.90;1.10;;;;;;;;;;10460322;28;20024;-62
2023/08/31 08:59:39;;;;;;;2.83;1.10;;;;;;;;;;10496919;28;20024;-62
2023/08/31 09:04:40;;;;;;;2.33;1.10;;;;;;;;;;10497003;28;20028;-62
2023/08/31 09:09:54;;;;;;;1.10;1.00;;;;;;;;;;10496519;28;20028;-62
2023/08/31 09:15:04;;;;;;;3.42;1.10;;;;;;;;;;10496446;28;20075;-62
2023/08/31 09:20:05;;;;;;;1.10;1.00;;;;;;;;;;10496207;28;20539;-62
2023/08/31 09:25:09;;;;;;;3.20;1.15;;;;;;;;;;10496055;28;20086;-62
2023/08/31 09:30:10;;;;;;;6.65;1.15;;;;;;;;;;10495865;28;20162;-62
2023/08/31 09:35:11;;;;;;;1.45;0.95;;;;;;;;;;10495645;28;20093;-62
2023/08/31 09:40:15;;;;;;;4.97;1.25;;;;;;;;;;10495546;28;20028;-62
2023/08/31 09:45:33;;;;;;;3.35;1.35;;;;;;;;;;10495348;28;20062;-62
2023/08/31 09:50:34;;;;;;;2.17;1.13;;;;;;;;;;10483179;28;20033;-62
2023/08/31 09:55:38;;;;;;;4.40;0.82;;;;;;;;;;10494130;28;20025;-62
2023/08/31 10:00:39;;;;;;;1.48;0.80;;;;;;;;;;10493675;28;20359;-62
2023/08/31 10:05:40;;;;;;;0.88;0.88;;;;;;;;;;10494525;28;20033;-62
2023/08/31 10:10:41;;;;;;;2.33;1.30;;;;;;;;;;10491274;28;20041;-62
2023/08/31 10:15:43;;;;;;;0.88;0.85;;;;;;;;;;10494098;28;20090;-62
2023/08/31 10:20:45;;;;;;;2.20;1.00;;;;;;;;;;10493687;28;20484;-62
2023/08/31 10:25:45;;;;;;;3.00;1.00;;;;;;;;;;10494001;28;20032;-62
2023/08/31 10:31:05;;;;;;;2.37;1.00;;;;;;;;;;10493376;28;20021;-62
2023/08/31 10:36:19;;;;;;;2.35;1.10;;;;;;;;;;10493809;28;20441;-62
2023/08/31 10:41:21;;;;;;;1.02;0.90;;;;;;;;;;10475114;28;20058;-62
2023/08/31 10:46:28;;;;;;;5.55;1.60;;;;;;;;;;10492823;28;20029;-62
2023/08/31 10:51:32;;;;;;;1.45;1.17;;;;;;;;;;10492420;28;20093;-62
2023/08/31 10:56:33;;;;;;;2.78;1.20;;;;;;;;;;10493013;28;20032;-62
2023/08/31 11:02:00;;;;;;;1.63;0.90;;;;;;;;;;10492240;28;20034;-62
2023/08/31 11:07:13;;;;;;;1.23;0.95;;;;;;;;;;10491324;28;20372;-62
2023/08/31 11:12:14;;;;;;;2.03;0.80;;;;;;;;;;10478047;28;20052;-62
2023/08/31 11:17:15;;;;;;;2.47;1.10;;;;;;;;;;10491770;28;20464;-62
2023/08/31 11:22:15;;;;;;;1.60;1.05;;;;;;;;;;10474022;28;20020;-62
2023/08/31 11:27:20;;;;;;;1.38;0.88;;;;;;;;;;10491523;28;20497;-62
2023/08/31 11:32:24;;;;;;;1.58;0.90;;;;;;;;;;10491623;28;20101;-62
2023/08/31 11:37:26;;;;;;;1.05;0.82;;;;;;;;;;10491315;28;20383;-62
2023/08/31 11:42:27;;;;;;;1.00;0.70;;;;;;;;;;10473864;28;20098;-62
2023/08/31 11:47:27;;;;;;;1.58;0.93;;;;;;;;;;10491608;28;20326;-62
2023/08/31 11:52:31;;;;;;;2.58;0.90;;;;;;;;;;10488794;28;20036;-62
2023/08/31 11:57:32;;;;;;;0.88;0.82;;;;;;;;;;10483733;28;20033;-62
2023/08/31 12:02:36;;;;;;;0.80;0.75;;;;;;;;;;10489619;28;20035;-62
2023/08/31 12:07:43;;;;;;;2.38;1.05;;;;;;;;;;10488999;28;20507;-62
2023/08/31 12:12:43;;;;;;;2.00;0.90;;;;;;;;;;10489164;28;20055;-62
2023/08/31 12:17:53;;;;;;;1.38;0.85;;;;;;;;;;10492291;28;20037;-63
2023/08/31 12:22:54;;;;;;;0.93;0.90;;;;;;;;;;10480764;28;20024;-62
2023/08/31 12:27:55;;;;;;;0.80;0.80;;;;;;;;;;10496760;28;20379;-63
2023/08/31 12:32:55;;;;;;;1.35;1.10;;;;;;;;;;10497715;28;20438;-62
2023/08/31 12:37:57;;;;;;;1.20;0.90;;;;;;;;;;10483125;28;20032;-62
2023/08/31 12:42:58;;;;;;;3.42;1.10;;;;;;;;;;10486953;28;20055;-62
2023/08/31 12:47:59;;;;;;;1.55;0.98;;;;;;;;;;10497602;28;20029;-62
2023/08/31 12:53:00;;;;;;;2.50;1.10;;;;;;;;;;10497184;28;20111;-62
2023/08/31 12:58:00;;;;;;;4.53;1.10;;;;;;;;;;10496144;28;20032;-62
2023/08/31 13:03:02;;;;;;;3.15;1.10;;;;;;;;;;10496028;28;20056;-62
2023/08/31 13:08:04;;;;;;;2.47;0.90;;;;;;;;;;10495383;28;20043;-62
2023/08/31 13:13:05;;;;;;;2.05;0.80;;;;;;;;;;10477243;28;20093;-63
2023/08/31 13:18:06;;;;;;;1.00;0.85;;;;;;;;;;10496118;28;20484;-63
2023/08/31 13:23:07;;;;;;;1.30;0.95;;;;;;;;;;10496012;28;20128;-63
2023/08/31 13:28:07;;;;;;;2.40;1.02;;;;;;;;;;10494577;28;20103;-62
2023/08/31 13:33:08;;;;;;;1.42;0.98;;;;;;;;;;10495591;28;20029;-62
2023/08/31 13:38:09;;;;;;;2.95;1.30;;;;;;;;;;10495588;28;20021;-62
2023/08/31 13:46:58;;;;;;;59.10;2.85;;;;;;;;;;10468596;28;20126;-53
2023/08/31 13:52:00;;;;;;;66.00;4.25;;;;;;;;;;10444061;28;20373;-47
2023/08/31 13:57:00;;;;;;;21.80;2.88;;;;;;;;;;10443334;28;20018;-46
2023/08/31 14:02:03;;;;;;;50.90;3.50;;;;;;;;;;10444054;28;20372;-48
2023/08/31 14:07:04;;;;;;;23.30;2.60;;;;;;;;;;10443391;28;20025;-48
2023/08/31 14:12:05;;;;;;;17.40;2.15;;;;;;;;;;10442749;28;20400;-50
2023/08/31 14:17:05;;;;;;;20.80;2.22;;;;;;;;;;10443142;28;20383;-47
2023/08/31 14:22:06;;;;;;;14.07;2.00;;;;;;;;;;10442393;28;20029;-52
2023/08/31 14:27:07;;;;;;;15.77;1.63;;;;;;;;;;10442967;28;20029;-47
2023/08/31 14:32:07;;;;;;;4.95;1.20;;;;;;;;;;10443114;28;20044;-46
2023/08/31 14:37:08;;;;;;;6.13;1.63;;;;;;;;;;10442490;28;20465;-46
2023/08/31 14:42:08;;;;;;;14.52;1.65;;;;;;;;;;10441780;28;20025;-46
2023/08/31 14:47:09;;;;;;;7.13;1.52;;;;;;;;;;10441068;28;20083;-48
2023/08/31 14:52:10;;;;;;;5.53;1.33;;;;;;;;;;10441363;28;20044;-48
2023/08/31 14:57:10;;;;;;;6.90;1.48;;;;;;;;;;10420523;28;20029;-46
2023/08/31 15:02:11;;;;;;;4.82;1.40;;;;;;;;;;10413759;28;20044;-46
2023/08/31 15:07:11;;;;;;;3.58;1.00;;;;;;;;;;10413894;28;20025;-47
2023/08/31 15:12:12;;;;;;;9.30;1.30;;;;;;;;;;10403858;28;20029;-46
2023/08/31 15:17:13;;;;;;;6.07;1.08;;;;;;;;;;10413401;28;20025;-46
2023/08/31 15:22:13;;;;;;;1.38;0.80;;;;;;;;;;10413148;28;20029;-47
2023/08/31 15:27:14;;;;;;;3.88;1.00;;;;;;;;;;10412890;28;20480;-46
2023/08/31 15:32:15;;;;;;;3.38;1.30;;;;;;;;;;10412874;28;20393;-46
2023/08/31 15:37:16;;;;;;;3.83;1.10;;;;;;;;;;10412040;28;20114;-46
2023/08/31 15:42:16;;;;;;;2.47;1.25;;;;;;;;;;10411852;28;20512;-48
2023/08/31 15:47:17;;;;;;;2.45;1.00;;;;;;;;;;10412351;28;20502;-47
2023/08/31 15:52:18;;;;;;;2.75;1.05;;;;;;;;;;10411953;28;20029;-46
2023/08/31 15:57:18;;;;;;;1.67;0.98;;;;;;;;;;10411755;28;20025;-46
2023/08/31 16:02:19;;;;;;;5.70;0.98;;;;;;;;;;10410719;28;20087;-46
2023/08/31 16:07:20;;;;;;;5.50;1.10;;;;;;;;;;10410603;28;20032;-46
2023/08/31 16:12:20;;;;;;;2.40;1.13;;;;;;;;;;10410228;28;20392;-48
2023/08/31 16:17:21;;;;;;;2.35;1.13;;;;;;;;;;10409278;28;20017;-46
2023/08/31 16:22:22;;;;;;;2.03;1.00;;;;;;;;;;10409989;28;20424;-48
2023/08/31 16:27:22;;;;;;;3.28;1.20;;;;;;;;;;10409994;28;20123;-46
2023/08/31 16:32:23;;;;;;;3.42;1.13;;;;;;;;;;10410359;28;20530;-47
2023/08/31 16:37:24;;;;;;;1.10;1.00;;;;;;;;;;10410262;28;20033;-47
2023/08/31 16:42:24;;;;;;;1.27;0.93;;;;;;;;;;10409613;28;20045;-47
2023/08/31 16:47:25;;;;;;;2.75;1.10;;;;;;;;;;10410000;28;20087;-47
2023/08/31 16:52:26;;;;;;;1.30;0.90;;;;;;;;;;10409612;28;20025;-48
2023/08/31 16:57:27;;;;;;;3.95;1.10;;;;;;;;;;10409616;28;20032;-47
2023/08/31 17:02:29;;;;;;;3.17;0.82;;;;;;;;;;10409632;28;20390;-50
2023/08/31 17:07:29;;;;;;;2.63;1.13;;;;;;;;;;10409366;28;20045;-47
2023/08/31 17:12:32;;;;;;;3.60;1.02;;;;;;;;;;10408856;28;20431;-46
2023/08/31 17:17:33;;;;;;;4.85;1.10;;;;;;;;;;10408963;28;20026;-46
2023/08/31 17:22:33;;;;;;;2.00;1.00;;;;;;;;;;10408581;28;20393;-46
2023/08/31 17:27:34;;;;;;;2.80;0.98;;;;;;;;;;10408257;28;20033;-46
2023/08/31 17:32:36;;;;;;;3.03;1.05;;;;;;;;;;10407552;28;20453;-47
2023/08/31 17:37:37;;;;;;;3.47;1.27;;;;;;;;;;10408175;28;20494;-47
2023/08/31 17:42:40;;;;;;;3.15;1.17;;;;;;;;;;10407856;28;20056;-46
2023/08/31 17:47:41;;;;;;;2.70;1.05;;;;;;;;;;10408320;28;20029;-46
2023/08/31 17:52:41;;;;;;;1.20;1.10;;;;;;;;;;10407881;28;20033;-46
2023/08/31 17:57:44;;;;;;;1.95;1.10;;;;;;;;;;10407904;28;20017;-46
2023/08/31 18:02:45;;;;;;;1.60;1.30;;;;;;;;;;10407694;28;20373;-47
2023/08/31 18:07:45;;;;;;;4.68;1.20;;;;;;;;;;10407780;28;20022;-46
2023/08/31 18:12:46;;;;;;;2.92;1.20;;;;;;;;;;10407484;28;20018;-46
2023/08/31 18:17:47;;;;;;;2.67;1.23;;;;;;;;;;10407528;28;20061;-46
2023/08/31 18:22:48;;;;;;;3.58;1.10;;;;;;;;;;10407358;28;20022;-47
2023/08/31 18:27:48;;;;;;;2.53;1.00;;;;;;;;;;10407307;28;20040;-48
2023/08/31 18:32:49;;;;;;;3.17;1.45;;;;;;;;;;10413697;28;20026;-46
2023/08/31 18:37:49;;;;;;;1.98;1.30;;;;;;;;;;10414974;28;20029;-46
2023/08/31 18:42:50;;;;;;;2.58;1.20;;;;;;;;;;10414268;28;20049;-47
2023/08/31 18:47:50;;;;;;;2.22;1.00;;;;;;;;;;10414833;28;20041;-46
2023/08/31 18:52:51;;;;;;;1.50;1.30;;;;;;;;;;10414352;28;20021;-47
2023/08/31 18:57:52;;;;;;;2.35;1.48;;;;;;;;;;10414260;28;20014;-47
2023/08/31 19:02:52;;;;;;;2.30;1.23;;;;;;;;;;10403948;28;20033;-46
2023/08/31 19:07:53;;;;;;;1.83;1.23;;;;;;;;;;10395926;28;20026;-46
2023/08/31 19:12:53;;;;;;;1.90;1.20;;;;;;;;;;10411189;28;20144;-47
2023/08/31 19:17:54;;;;;;;5.35;1.00;;;;;;;;;;10408453;28;20034;-47
2023/08/31 19:22:55;;;;;;;2.65;1.27;;;;;;;;;;10388568;28;20079;-48
2023/08/31 19:28:00;;;;;;;1.20;0.90;;;;;;;;;;10411855;28;20032;-47
2023/08/31 19:33:01;;;;;;;2.10;1.20;;;;;;;;;;10400190;28;20057;-46
2023/08/31 19:38:02;;;;;;;4.30;1.00;;;;;;;;;;10407418;28;20040;-46
2023/08/31 19:43:02;;;;;;;1.92;1.10;;;;;;;;;;10407888;28;20115;-47
2023/08/31 19:48:03;;;;;;;1.67;1.00;;;;;;;;;;10409787;28;20037;-46
2023/08/31 19:53:07;;;;;;;1.83;1.00;;;;;;;;;;10407541;28;20566;-47
2023/08/31 19:58:08;;;;;;;2.80;1.05;;;;;;;;;;10408862;28;20029;-46
2023/08/31 20:03:08;;;;;;;1.50;0.90;;;;;;;;;;10411660;28;20025;-47
2023/08/31 20:08:09;;;;;;;0.80;0.80;;;;;;;;;;10411121;28;20025;-47
2023/08/31 20:13:10;;;;;;;3.22;1.00;;;;;;;;;;10409440;28;20028;-48
2023/08/31 20:18:11;;;;;;;2.47;0.90;;;;;;;;;;10409280;28;20037;-47
2023/08/31 20:23:13;;;;;;;1.98;0.85;;;;;;;;;;10410656;28;20069;-46
2023/08/31 20:28:14;;;;;;;0.77;0.77;;;;;;;;;;10392337;28;20033;-46
2023/08/31 20:33:15;;;;;;;0.93;0.90;;;;;;;;;;10406515;28;20056;-46
2023/08/31 20:38:15;;;;;;;1.20;0.80;;;;;;;;;;10409446;28;20025;-47
2023/08/31 20:43:16;;;;;;;0.80;0.80;;;;;;;;;;10409268;28;20119;-46
2023/08/31 20:48:16;;;;;;;1.35;0.82;;;;;;;;;;10401861;28;20435;-47
2023/08/31 20:53:17;;;;;;;1.02;0.80;;;;;;;;;;10409118;28;20365;-47
2023/08/31 20:58:18;;;;;;;1.20;1.00;;;;;;;;;;10407083;28;20036;-47
2023/08/31 21:03:18;;;;;;;1.95;1.00;;;;;;;;;;10409469;28;20037;-46
2023/08/31 21:08:19;;;;;;;1.85;0.90;;;;;;;;;;10409378;28;20032;-46
2023/08/31 21:13:21;;;;;;;1.92;0.77;;;;;;;;;;10408689;28;20022;-47
2023/08/31 21:18:23;;;;;;;2.60;0.93;;;;;;;;;;10407127;28;20539;-51
2023/08/31 21:23:23;;;;;;;1.15;0.90;;;;;;;;;;10406837;28;20026;-46
2023/08/31 21:28:24;;;;;;;1.00;0.90;;;;;;;;;;10408347;28;20021;-46
2023/08/31 21:33:25;;;;;;;1.67;0.73;;;;;;;;;;10408938;28;20489;-46
2023/08/31 21:38:25;;;;;;;1.65;0.98;;;;;;;;;;10408443;28;20042;-46
2023/08/31 21:43:26;;;;;;;2.42;0.88;;;;;;;;;;10397772;28;20095;-47
2023/08/31 21:48:27;;;;;;;0.90;0.82;;;;;;;;;;10394928;28;20029;-46
2023/08/31 21:53:27;;;;;;;2.30;1.17;;;;;;;;;;10406551;28;20030;-47
2023/08/31 21:58:28;;;;;;;7.93;1.10;;;;;;;;;;10398821;28;20033;-48
2023/08/31 22:03:30;;;;;;;3.28;1.10;;;;;;;;;;10402356;28;20166;-46
2023/08/31 22:08:31;;;;;;;6.90;1.08;;;;;;;;;;10425771;28;20032;-47
2023/08/31 22:13:34;;;;;;;3.72;1.30;;;;;;;;;;10415444;28;20069;-47
2023/08/31 22:18:34;;;;;;;5.03;1.88;;;;;;;;;;10415829;28;20029;-49
2023/08/31 22:23:35;;;;;;;3.28;1.50;;;;;;;;;;10415673;28;20028;-47
2023/08/31 22:28:35;;;;;;;2.25;0.80;;;;;;;;;;10415744;28;20042;-46
2023/08/31 22:33:36;;;;;;;2.90;1.38;;;;;;;;;;10415647;28;20440;-47
2023/08/31 22:38:37;;;;;;;3.80;1.50;;;;;;;;;;10416228;28;20029;-47
2023/08/31 22:43:40;;;;;;;2.28;0.82;;;;;;;;;;10415354;28;20091;-47
2023/08/31 22:48:41;;;;;;;3.15;1.05;;;;;;;;;;10415093;28;20064;-46
2023/08/31 22:53:42;;;;;;;4.82;1.10;;;;;;;;;;10414966;28;20037;-47
2023/08/31 22:58:42;;;;;;;7.43;1.13;;;;;;;;;;10414961;28;20263;-47
2023/08/31 23:03:43;;;;;;;4.30;1.20;;;;;;;;;;10414347;28;20033;-47
2023/08/31 23:08:43;;;;;;;1.92;1.00;;;;;;;;;;10414783;28;20029;-47
2023/08/31 23:13:44;;;;;;;2.05;1.15;;;;;;;;;;10414533;28;20523;-47
2023/08/31 23:18:45;;;;;;;4.00;1.02;;;;;;;;;;10413282;28;20053;-47
2023/08/31 23:23:45;;;;;;;5.13;1.00;;;;;;;;;;10413660;28;20033;-47
2023/08/31 23:28:46;;;;;;;7.93;1.35;;;;;;;;;;10413524;28;20018;-47
2023/08/31 23:33:46;;;;;;;4.60;1.10;;;;;;;;;;10413780;28;20028;-47
2023/08/31 23:38:50;;;;;;;5.88;1.10;;;;;;;;;;10413065;28;20017;-47
2023/08/31 23:43:51;;;;;;;4.18;1.30;;;;;;;;;;10412864;28;20045;-48
2023/08/31 23:48:51;;;;;;;2.88;1.00;;;;;;;;;;10412628;28;20303;-46
2023/08/31 23:53:52;;;;;;;3.78;1.25;;;;;;;;;;10413081;28;20439;-47
2023/08/31 23:58:53;;;;;;;1.73;1.00;;;;;;;;;;10412371;28;20034;-47
